createdAt,value
2017-11-17T00:01:24.126Z,4.40
2017-11-17T00:03:51.986Z,4.40
2017-11-17T00:06:19.963Z,4.50
2017-11-17T00:08:47.823Z,4.40
2017-11-17T00:11:15.695Z,4.50
2017-11-17T00:13:43.558Z,4.40
2017-11-17T00:16:11.426Z,4.40
2017-11-17T00:18:39.292Z,4.30
2017-11-17T00:21:07.160Z,4.40
2017-11-17T00:23:35.030Z,4.40
2017-11-17T00:26:02.894Z,4.40
2017-11-17T00:28:30.762Z,4.50
2017-11-17T00:30:58.629Z,4.50
2017-11-17T00:33:26.495Z,4.50
2017-11-17T00:35:54.364Z,4.50
2017-11-17T00:38:22.231Z,4.60
2017-11-17T00:40:50.098Z,4.60
2017-11-17T00:43:17.965Z,4.60
2017-11-17T00:45:45.838Z,4.60
2017-11-17T00:48:13.699Z,4.70
2017-11-17T00:50:41.568Z,4.60
2017-11-17T00:53:09.434Z,4.60
2017-11-17T00:55:37.302Z,4.60
2017-11-17T00:58:05.172Z,4.50
2017-11-17T01:00:33.039Z,4.40
2017-11-17T01:03:00.905Z,4.50
2017-11-17T01:05:28.772Z,4.50
2017-11-17T01:07:56.639Z,4.50
2017-11-17T01:10:24.507Z,4.50
2017-11-17T01:12:52.373Z,4.50
2017-11-17T01:15:20.240Z,4.60
2017-11-17T01:17:48.107Z,4.40
2017-11-17T01:20:15.976Z,4.40
2017-11-17T01:22:43.842Z,4.40
2017-11-17T01:25:11.714Z,4.40
2017-11-17T01:27:39.576Z,4.50
2017-11-17T01:30:07.448Z,4.50
2017-11-17T01:32:35.315Z,4.50
2017-11-17T01:35:03.180Z,4.40
2017-11-17T01:37:31.047Z,4.40
2017-11-17T01:39:58.915Z,4.30
2017-11-17T01:42:26.711Z,4.30
2017-11-17T01:44:55.366Z,4.30
2017-11-17T01:47:23.233Z,4.30
2017-11-17T01:49:51.100Z,4.30
2017-11-17T01:52:18.997Z,4.50
2017-11-17T01:54:47.656Z,4.40
2017-11-17T01:57:15.523Z,4.40
2017-11-17T01:59:43.388Z,4.40
2017-11-17T02:02:20.164Z,4.40
2017-11-17T02:04:48.134Z,4.40
2017-11-17T02:07:16.001Z,4.30
2017-11-17T02:09:43.872Z,4.40
2017-11-17T02:12:11.737Z,4.30
2017-11-17T02:14:39.808Z,4.30
2017-11-17T02:17:07.676Z,4.30
2017-11-17T02:19:35.649Z,4.30
2017-11-17T02:22:03.617Z,4.30
2017-11-17T02:24:31.486Z,4.30
2017-11-17T02:26:59.351Z,4.30
2017-11-17T02:29:27.324Z,4.30
2017-11-17T02:31:55.294Z,4.30
2017-11-17T02:34:23.159Z,4.30
2017-11-17T02:36:51.027Z,4.30
2017-11-17T02:39:19.001Z,4.30
2017-11-17T02:41:47.681Z,4.30
2017-11-17T02:44:15.554Z,4.30
2017-11-17T02:46:43.416Z,4.30
2017-11-17T02:49:11.384Z,4.30
2017-11-17T02:51:39.255Z,4.40
2017-11-17T02:54:07.938Z,4.20
2017-11-17T02:56:35.806Z,4.20
2017-11-17T02:59:03.777Z,4.30
2017-11-17T03:01:31.745Z,4.10
2017-11-17T03:03:59.611Z,4.20
2017-11-17T03:06:27.480Z,4.20
2017-11-17T03:08:55.349Z,4.30
2017-11-17T03:11:23.214Z,4.30
2017-11-17T03:13:51.081Z,4.30
2017-11-17T03:16:18.950Z,4.30
2017-11-17T03:18:46.816Z,4.30
2017-11-17T03:21:14.683Z,4.30
2017-11-17T03:23:42.554Z,4.40
2017-11-17T03:26:11.238Z,4.30
2017-11-17T03:28:39.207Z,4.30
2017-11-17T03:31:07.078Z,4.30
2017-11-17T03:33:34.942Z,4.20
2017-11-17T03:36:02.808Z,4.20
2017-11-17T03:38:30.676Z,4.30
2017-11-17T03:40:58.543Z,4.30
2017-11-17T03:43:26.411Z,4.30
2017-11-17T03:45:54.383Z,4.30
2017-11-17T03:48:22.248Z,4.30
2017-11-17T03:50:50.117Z,4.40
2017-11-17T03:53:17.982Z,4.50
2017-11-17T03:55:45.851Z,4.60
2017-11-17T03:58:13.717Z,4.50
2017-11-17T04:00:41.688Z,4.40
2017-11-17T04:03:09.556Z,4.40
2017-11-17T04:05:37.425Z,4.40
2017-11-17T04:08:05.288Z,4.30
2017-11-17T04:10:33.156Z,4.40
2017-11-17T04:13:01.023Z,4.50
2017-11-17T04:15:28.889Z,4.50
2017-11-17T04:17:56.758Z,4.50
2017-11-17T04:20:24.625Z,4.40
2017-11-17T04:22:53.191Z,4.30
2017-11-17T04:25:21.900Z,4.30
2017-11-17T04:27:49.763Z,4.30
2017-11-17T04:30:17.629Z,4.30
2017-11-17T04:32:45.498Z,4.20
2017-11-17T04:35:13.570Z,4.20
2017-11-17T04:37:41.437Z,4.20
2017-11-17T04:40:09.407Z,4.20
2017-11-17T04:42:37.273Z,4.20
2017-11-17T04:45:05.141Z,4.10
2017-11-17T04:47:33.014Z,4.20
2017-11-17T04:50:00.876Z,4.30
2017-11-17T04:52:28.742Z,4.30
2017-11-17T04:54:56.541Z,4.20
2017-11-17T04:57:25.196Z,4.20
2017-11-17T04:59:53.062Z,4.20
2017-11-17T05:02:20.929Z,4.10
2017-11-17T05:04:48.796Z,4.10
2017-11-17T05:07:16.663Z,4.10
2017-11-17T05:09:44.530Z,4.00
2017-11-17T05:12:12.398Z,4.00
2017-11-17T05:14:40.267Z,4.10
2017-11-17T05:17:08.443Z,4.10
2017-11-17T05:19:39.843Z,4.10
2017-11-17T05:22:10.722Z,4.10
2017-11-17T05:24:38.697Z,4.10
2017-11-17T05:27:06.565Z,4.10
2017-11-17T05:29:34.433Z,4.20
2017-11-17T05:32:02.306Z,4.20
2017-11-17T05:34:30.177Z,4.30
2017-11-17T05:36:58.040Z,4.20
2017-11-17T05:39:25.835Z,4.20
2017-11-17T05:41:54.487Z,4.30
2017-11-17T05:44:22.357Z,4.20
2017-11-17T05:46:50.087Z,4.20
2017-11-17T05:49:17.989Z,4.30
2017-11-17T05:51:45.854Z,4.30
2017-11-17T05:54:13.724Z,4.30
2017-11-17T05:56:41.587Z,4.30
2017-11-17T05:59:09.454Z,4.40
2017-11-17T06:01:37.324Z,4.40
2017-11-17T06:04:05.189Z,4.30
2017-11-17T06:06:33.057Z,4.30
2017-11-17T06:09:00.927Z,4.40
2017-11-17T06:11:28.791Z,4.40
2017-11-17T06:13:56.658Z,4.30
2017-11-17T06:16:24.526Z,4.40
2017-11-17T06:18:52.403Z,4.40
2017-11-17T06:21:20.260Z,4.40
2017-11-17T06:23:48.127Z,4.40
2017-11-17T06:26:15.995Z,4.40
2017-11-17T06:28:43.862Z,4.40
2017-11-17T06:31:11.730Z,4.40
2017-11-17T06:33:39.599Z,4.40
2017-11-17T06:36:07.566Z,4.40
2017-11-17T06:38:35.433Z,4.50
2017-11-17T06:41:03.302Z,4.50
2017-11-17T06:43:31.169Z,4.40
2017-11-17T06:45:59.037Z,4.40
2017-11-17T06:48:26.904Z,4.40
2017-11-17T06:50:54.770Z,4.40
2017-11-17T06:53:22.638Z,4.40
2017-11-17T06:55:50.506Z,4.40
2017-11-17T06:58:18.372Z,4.40
2017-11-17T07:00:46.239Z,4.50
2017-11-17T07:03:14.122Z,4.50
2017-11-17T07:05:41.979Z,4.50
2017-11-17T07:08:09.842Z,4.50
2017-11-17T07:10:37.711Z,4.50
2017-11-17T07:13:05.576Z,4.30
2017-11-17T07:15:33.442Z,4.30
2017-11-17T07:18:01.243Z,4.40
2017-11-17T07:20:29.937Z,4.70
2017-11-17T07:22:58.582Z,4.80
2017-11-17T07:25:26.448Z,4.80
2017-11-17T07:27:54.320Z,4.80
2017-11-17T07:30:22.183Z,4.90
2017-11-17T07:32:50.055Z,4.90
2017-11-17T07:35:17.920Z,5.00
2017-11-17T07:37:45.785Z,5.00
2017-11-17T07:40:13.652Z,5.00
2017-11-17T07:42:41.519Z,5.00
2017-11-17T07:45:09.387Z,5.00
2017-11-17T07:47:37.255Z,5.00
2017-11-17T07:50:05.121Z,4.80
2017-11-17T07:52:32.989Z,4.90
2017-11-17T07:55:00.856Z,4.90
2017-11-17T07:57:28.722Z,4.80
2017-11-17T07:59:56.591Z,4.70
2017-11-17T08:02:24.459Z,4.70
2017-11-17T08:04:52.328Z,4.70
2017-11-17T08:07:20.195Z,4.80
2017-11-17T08:09:48.058Z,4.70
2017-11-17T08:12:15.928Z,4.60
2017-11-17T08:14:43.796Z,4.70
2017-11-17T08:17:24.566Z,4.60
2017-11-17T08:19:52.432Z,4.50
2017-11-17T08:22:20.300Z,4.50
2017-11-17T08:24:48.166Z,4.60
2017-11-17T08:27:16.033Z,4.60
2017-11-17T08:29:43.903Z,4.60
2017-11-17T08:32:11.769Z,4.60
2017-11-17T08:34:39.634Z,4.60
2017-11-17T08:37:07.503Z,4.70
2017-11-17T08:39:35.384Z,4.80
2017-11-17T08:42:03.237Z,4.80
2017-11-17T08:44:31.104Z,4.90
2017-11-17T08:46:58.976Z,4.90
2017-11-17T08:49:26.843Z,4.90
2017-11-17T08:51:54.717Z,4.80
2017-11-17T08:54:22.575Z,4.90
2017-11-17T08:56:50.446Z,5.00
2017-11-17T08:59:18.313Z,5.00
2017-11-17T09:01:46.179Z,5.00
2017-11-17T09:04:14.047Z,5.10
2017-11-17T09:06:41.911Z,5.10
2017-11-17T09:09:09.778Z,5.10
2017-11-17T09:11:37.648Z,5.20
2017-11-17T09:14:05.512Z,5.20
2017-11-17T09:16:33.382Z,5.20
2017-11-17T09:19:01.247Z,5.20
2017-11-17T09:21:29.114Z,5.20
2017-11-17T09:23:56.981Z,5.20
2017-11-17T09:26:24.850Z,5.20
2017-11-17T09:28:52.716Z,5.20
2017-11-17T09:31:20.585Z,5.20
2017-11-17T09:33:48.456Z,5.30
2017-11-17T09:36:16.319Z,5.30
2017-11-17T09:38:44.184Z,5.20
2017-11-17T09:41:12.052Z,5.10
2017-11-17T09:43:39.920Z,5.20
2017-11-17T09:46:07.890Z,5.20
2017-11-17T09:48:35.757Z,5.30
2017-11-17T09:51:03.625Z,5.30
2017-11-17T09:53:31.492Z,5.30
2017-11-17T09:55:59.360Z,5.30
2017-11-17T09:58:27.227Z,5.30
2017-11-17T10:00:55.099Z,5.30
2017-11-17T10:03:22.962Z,5.30
2017-11-17T10:05:50.829Z,5.30
2017-11-17T10:08:18.696Z,5.20
2017-11-17T10:10:46.563Z,5.20
2017-11-17T10:13:14.430Z,5.20
2017-11-17T10:15:42.304Z,5.30
2017-11-17T10:18:10.166Z,5.30
2017-11-17T10:20:38.135Z,5.30
2017-11-17T10:23:06.003Z,5.40
2017-11-17T10:25:33.868Z,5.40
2017-11-17T10:28:01.736Z,5.50
2017-11-17T10:30:29.611Z,5.60
2017-11-17T10:32:57.471Z,5.60
2017-11-17T10:35:25.339Z,5.60
2017-11-17T10:37:53.207Z,5.60
2017-11-17T10:40:21.175Z,5.70
2017-11-17T10:42:49.043Z,5.70
2017-11-17T10:45:16.919Z,5.70
2017-11-17T10:47:44.778Z,5.80
2017-11-17T10:50:12.746Z,5.80
2017-11-17T10:52:40.615Z,5.90
2017-11-17T10:55:08.481Z,5.90
2017-11-17T10:57:36.349Z,5.90
2017-11-17T11:00:04.319Z,6.00
2017-11-17T11:02:32.186Z,6.00
2017-11-17T11:05:00.054Z,6.00
2017-11-17T11:07:27.919Z,6.00
2017-11-17T11:09:55.787Z,6.10
2017-11-17T11:12:23.657Z,6.00
2017-11-17T11:14:51.526Z,6.00
2017-11-17T11:17:19.390Z,6.00
2017-11-17T11:19:47.256Z,5.90
2017-11-17T11:22:15.124Z,6.10
2017-11-17T11:24:42.992Z,6.10
2017-11-17T11:27:10.862Z,6.10
2017-11-17T11:29:38.725Z,6.30
2017-11-17T11:32:06.593Z,6.30
2017-11-17T11:34:34.463Z,6.40
2017-11-17T11:37:02.327Z,6.30
2017-11-17T11:39:30.196Z,6.50
2017-11-17T11:41:58.061Z,6.40
2017-11-17T11:44:25.929Z,6.30
2017-11-17T11:46:53.804Z,6.40
2017-11-17T11:49:21.664Z,6.30
2017-11-17T11:51:49.541Z,6.20
2017-11-17T11:54:17.402Z,6.30
2017-11-17T11:56:45.267Z,6.30
2017-11-17T11:59:13.134Z,6.40
2017-11-17T12:01:41.001Z,6.50
2017-11-17T12:04:08.874Z,6.60
2017-11-17T12:06:36.742Z,6.70
2017-11-17T12:09:04.711Z,6.80
2017-11-17T12:11:32.572Z,6.90
2017-11-17T12:14:00.549Z,6.90
2017-11-17T12:16:28.411Z,6.90
2017-11-17T12:18:56.279Z,6.90
2017-11-17T12:21:24.146Z,6.90
2017-11-17T12:23:52.013Z,6.80
2017-11-17T12:26:19.880Z,6.90
2017-11-17T12:28:47.745Z,6.90
2017-11-17T12:31:15.611Z,6.90
2017-11-17T12:33:43.480Z,7.00
2017-11-17T12:36:11.349Z,7.00
2017-11-17T12:38:39.214Z,7.10
2017-11-17T12:41:07.083Z,7.10
2017-11-17T12:43:34.950Z,7.10
2017-11-17T12:46:02.821Z,7.20
2017-11-17T12:48:30.687Z,7.30
2017-11-17T12:50:58.553Z,7.30
2017-11-17T12:53:26.352Z,7.40
2017-11-17T12:55:55.003Z,7.50
2017-11-17T12:58:22.869Z,7.40
2017-11-17T13:00:50.746Z,7.60
2017-11-17T13:03:18.604Z,7.70
2017-11-17T13:05:46.471Z,7.80
2017-11-17T13:08:14.341Z,7.80
2017-11-17T13:10:42.208Z,7.80
2017-11-17T13:13:10.076Z,7.80
2017-11-17T13:15:37.941Z,7.80
2017-11-17T13:18:05.813Z,7.80
2017-11-17T13:20:33.677Z,7.60
2017-11-17T13:23:01.543Z,7.50
2017-11-17T13:25:29.410Z,7.60
2017-11-17T13:27:57.278Z,7.70
2017-11-17T13:30:25.145Z,7.70
2017-11-17T13:32:53.012Z,7.80
2017-11-17T13:35:20.879Z,7.70
2017-11-17T13:37:48.747Z,7.60
2017-11-17T13:40:16.614Z,7.50
2017-11-17T13:42:44.481Z,7.60
2017-11-17T13:45:12.349Z,7.60
2017-11-17T13:47:40.215Z,7.60
2017-11-17T13:50:08.083Z,7.40
2017-11-17T13:52:35.952Z,7.30
2017-11-17T13:55:03.818Z,7.30
2017-11-17T13:57:31.795Z,7.30
2017-11-17T13:59:59.654Z,7.30
2017-11-17T14:02:27.523Z,7.20
2017-11-17T14:04:55.391Z,7.30
2017-11-17T14:07:23.256Z,7.30
2017-11-17T14:09:51.125Z,7.40
2017-11-17T14:12:18.991Z,7.50
2017-11-17T14:14:46.859Z,7.40
2017-11-17T14:17:14.726Z,7.40
2017-11-17T14:19:42.594Z,7.50
2017-11-17T14:22:10.460Z,7.50
2017-11-17T14:24:38.328Z,7.50
2017-11-17T14:27:06.195Z,7.50
2017-11-17T14:29:34.067Z,7.60
2017-11-17T14:32:01.931Z,7.60
2017-11-17T14:34:29.798Z,7.60
2017-11-17T14:36:57.664Z,7.70
2017-11-17T14:39:25.532Z,7.70
2017-11-17T14:41:54.218Z,7.60
2017-11-17T14:44:22.084Z,7.70
2017-11-17T14:46:49.953Z,7.70
2017-11-17T14:49:17.820Z,7.70
2017-11-17T14:51:45.688Z,7.70
2017-11-17T14:54:13.556Z,7.70
2017-11-17T14:56:41.422Z,7.60
2017-11-17T14:59:09.477Z,7.50
2017-11-17T15:01:37.361Z,7.50
2017-11-17T15:04:05.229Z,7.40
2017-11-17T15:06:33.097Z,7.40
2017-11-17T15:09:00.963Z,7.30
2017-11-17T15:11:28.830Z,7.30
2017-11-17T15:13:56.697Z,7.30
2017-11-17T15:16:24.565Z,7.30
2017-11-17T15:18:52.438Z,7.30
2017-11-17T15:21:20.402Z,7.20
2017-11-17T15:23:48.275Z,7.30
2017-11-17T15:26:16.142Z,7.40
2017-11-17T15:28:44.007Z,7.40
2017-11-17T15:31:11.875Z,7.50
2017-11-17T15:33:39.848Z,7.60
2017-11-17T15:36:07.714Z,7.50
2017-11-17T15:38:35.679Z,7.30
2017-11-17T15:41:03.548Z,7.30
2017-11-17T15:43:31.417Z,7.40
2017-11-17T15:45:59.279Z,7.50
2017-11-17T15:48:27.249Z,7.60
2017-11-17T15:50:55.118Z,7.60
2017-11-17T15:53:22.985Z,7.40
2017-11-17T15:55:50.854Z,7.50
2017-11-17T15:58:18.719Z,7.40
2017-11-17T16:00:46.688Z,7.60
2017-11-17T16:03:14.556Z,7.60
2017-11-17T16:05:42.461Z,7.70
2017-11-17T16:08:11.111Z,7.60
2017-11-17T16:10:38.977Z,7.60
2017-11-17T16:13:06.948Z,7.50
2017-11-17T16:15:34.814Z,7.40
2017-11-17T16:18:02.784Z,7.50
2017-11-17T16:20:30.651Z,7.60
2017-11-17T16:22:58.519Z,7.50
2017-11-17T16:25:26.386Z,7.60
2017-11-17T16:27:54.274Z,7.60
2017-11-17T16:30:22.222Z,7.60
2017-11-17T16:32:50.090Z,7.70
2017-11-17T16:35:17.964Z,7.70
2017-11-17T16:37:45.828Z,7.70
2017-11-17T16:40:13.692Z,7.80
2017-11-17T16:42:41.563Z,7.80
2017-11-17T16:45:09.441Z,7.80
2017-11-17T16:47:38.117Z,7.40
2017-11-17T16:50:06.087Z,7.40
2017-11-17T16:52:33.952Z,7.40
2017-11-17T16:55:01.819Z,7.50
2017-11-17T16:57:29.686Z,7.50
2017-11-17T16:59:57.551Z,7.60
2017-11-17T17:02:25.419Z,7.60
2017-11-17T17:04:53.305Z,7.50
2017-11-17T17:07:21.973Z,7.40
2017-11-17T17:09:49.840Z,7.40
2017-11-17T17:12:17.707Z,7.40
2017-11-17T17:14:45.576Z,7.40
2017-11-17T17:17:13.453Z,7.40
2017-11-17T17:19:41.311Z,7.40
2017-11-17T17:22:09.179Z,7.50
2017-11-17T17:24:37.045Z,7.40
2017-11-17T17:27:04.914Z,7.40
2017-11-17T17:29:32.781Z,7.40
2017-11-17T17:32:00.648Z,7.30
2017-11-17T17:34:28.514Z,7.40
2017-11-17T17:36:56.381Z,7.40
2017-11-17T17:39:24.249Z,7.30
2017-11-17T17:41:52.117Z,7.20
2017-11-17T17:44:19.983Z,7.20
2017-11-17T17:46:47.851Z,7.20
2017-11-17T17:49:15.718Z,7.20
2017-11-17T17:51:43.585Z,7.20
2017-11-17T17:54:11.454Z,7.30
2017-11-17T17:56:39.416Z,7.30
2017-11-17T17:59:07.225Z,7.30
2017-11-17T18:01:36.034Z,7.50
2017-11-17T18:04:04.253Z,7.40
2017-11-17T18:06:32.120Z,7.40
2017-11-17T18:08:59.987Z,7.20
2017-11-17T18:11:27.856Z,7.10
2017-11-17T18:13:55.725Z,7.20
2017-11-17T18:16:23.599Z,7.30
2017-11-17T18:18:51.457Z,7.40
2017-11-17T18:21:19.327Z,7.50
2017-11-17T18:23:47.236Z,7.60
2017-11-17T18:26:15.878Z,7.30
2017-11-17T18:28:45.172Z,7.30
2017-11-17T18:31:13.885Z,7.40
2017-11-17T18:33:42.286Z,7.40
2017-11-17T18:36:11.034Z,7.50
2017-11-17T18:38:39.720Z,7.60
2017-11-17T18:41:07.610Z,7.60
2017-11-17T18:43:35.799Z,7.70
2017-11-17T18:46:04.473Z,7.30
2017-11-17T18:48:32.321Z,7.30
2017-11-17T18:51:01.044Z,7.50
2017-11-17T18:53:29.694Z,7.60
2017-11-17T18:55:57.558Z,7.60
2017-11-17T18:58:25.425Z,7.70
2017-11-17T19:00:53.297Z,7.70
2017-11-17T19:03:21.159Z,7.80
2017-11-17T19:05:49.026Z,7.80
2017-11-17T19:08:16.893Z,7.90
2017-11-17T19:10:44.826Z,7.90
2017-11-17T19:13:13.454Z,8.00
2017-11-17T19:15:41.357Z,8.00
2017-11-17T19:18:09.182Z,8.00
2017-11-17T19:20:37.050Z,8.00
2017-11-17T19:23:04.917Z,8.00
2017-11-17T19:25:32.785Z,8.00
2017-11-17T19:28:00.652Z,7.90
2017-11-17T19:30:28.520Z,7.90
2017-11-17T19:32:56.386Z,7.90
2017-11-17T19:35:24.253Z,7.90
2017-11-17T19:37:52.120Z,7.80
2017-11-17T19:40:19.987Z,7.80
2017-11-17T19:42:47.854Z,7.70
2017-11-17T19:45:15.721Z,7.80
2017-11-17T19:47:43.589Z,7.80
2017-11-17T19:50:11.456Z,7.80
2017-11-17T19:52:39.324Z,7.80
2017-11-17T19:55:07.193Z,7.90
2017-11-17T19:57:35.161Z,7.90
2017-11-17T20:00:03.033Z,7.90
2017-11-17T20:02:30.896Z,8.00
2017-11-17T20:04:58.764Z,7.90
2017-11-17T20:07:26.630Z,7.80
2017-11-17T20:09:54.498Z,7.90
2017-11-17T20:12:22.365Z,7.90
2017-11-17T20:14:50.249Z,8.00
2017-11-17T20:17:18.099Z,8.00
2017-11-17T20:19:45.969Z,8.00
2017-11-17T20:22:13.836Z,8.00
2017-11-17T20:24:41.704Z,8.00
2017-11-17T20:27:09.569Z,8.00
2017-11-17T20:29:37.435Z,8.00
2017-11-17T20:32:05.307Z,8.10
2017-11-17T20:34:33.170Z,8.10
2017-11-17T20:37:01.038Z,8.10
2017-11-17T20:39:28.906Z,8.10
2017-11-17T20:41:56.773Z,8.20
2017-11-17T20:44:24.640Z,8.00
2017-11-17T20:46:52.511Z,7.90
2017-11-17T20:49:20.375Z,8.00
2017-11-17T20:51:48.250Z,8.00
2017-11-17T20:54:16.825Z,8.00
2017-11-17T20:56:44.696Z,8.00
2017-11-17T20:59:12.561Z,8.00
2017-11-17T21:01:40.428Z,8.00
2017-11-17T21:04:08.294Z,8.10
2017-11-17T21:06:36.164Z,8.10
2017-11-17T21:09:04.030Z,8.10
2017-11-17T21:11:31.897Z,8.10
2017-11-17T21:13:59.765Z,8.10
2017-11-17T21:16:27.632Z,8.10
2017-11-17T21:18:55.503Z,8.00
2017-11-17T21:21:23.365Z,8.00
2017-11-17T21:23:51.234Z,7.90
2017-11-17T21:26:19.101Z,7.80
2017-11-17T21:28:46.968Z,7.80
2017-11-17T21:31:14.836Z,7.80
2017-11-17T21:33:42.703Z,7.80
2017-11-17T21:36:10.573Z,7.90
2017-11-17T21:38:38.540Z,7.90
2017-11-17T21:41:06.406Z,7.90
2017-11-17T21:43:34.274Z,7.90
2017-11-17T21:46:02.147Z,8.00
2017-11-17T21:48:30.009Z,8.00
2017-11-17T21:50:57.877Z,8.00
2017-11-17T21:53:25.789Z,7.80
2017-11-17T21:55:54.431Z,7.80
2017-11-17T21:58:22.302Z,7.80
2017-11-17T22:00:50.167Z,7.70
2017-11-17T22:03:18.038Z,7.70
2017-11-17T22:05:45.904Z,7.60
2017-11-17T22:08:13.771Z,7.60
2017-11-17T22:10:41.645Z,7.60
2017-11-17T22:13:09.503Z,7.60
2017-11-17T22:15:37.371Z,7.60
2017-11-17T22:18:05.259Z,7.40
2017-11-17T22:20:33.105Z,7.40
2017-11-17T22:23:00.970Z,7.40
2017-11-17T22:25:28.838Z,7.30
2017-11-17T22:27:56.707Z,7.20
2017-11-17T22:30:24.573Z,7.10
2017-11-17T22:32:52.445Z,7.10
2017-11-17T22:35:20.307Z,7.10
2017-11-17T22:37:48.175Z,7.20
2017-11-17T22:40:16.043Z,7.10
2017-11-17T22:42:43.909Z,7.10
2017-11-17T22:45:11.777Z,7.20
2017-11-17T22:47:39.746Z,7.30
2017-11-17T22:50:07.613Z,7.40
2017-11-17T22:52:35.480Z,7.50
2017-11-17T22:55:03.385Z,7.50
2017-11-17T22:57:32.036Z,7.70
2017-11-17T22:59:59.902Z,7.60
2017-11-17T23:02:27.769Z,7.70
2017-11-17T23:04:55.574Z,7.80
2017-11-17T23:07:24.221Z,7.80
2017-11-17T23:09:52.088Z,7.80
2017-11-17T23:12:19.957Z,7.80
2017-11-17T23:14:47.826Z,7.80
2017-11-17T23:17:15.691Z,7.90
2017-11-17T23:19:43.561Z,7.90
2017-11-17T23:22:11.429Z,7.90
2017-11-17T23:24:39.291Z,7.90
2017-11-17T23:27:08.080Z,7.80
2017-11-17T23:29:35.949Z,7.80
2017-11-17T23:32:03.817Z,7.80
2017-11-17T23:34:31.682Z,7.80
2017-11-17T23:36:59.492Z,7.80
2017-11-17T23:39:28.135Z,7.70
2017-11-17T23:41:56.002Z,7.80
2017-11-17T23:44:23.869Z,7.70
2017-11-17T23:46:51.736Z,7.70
2017-11-17T23:49:19.604Z,7.60
2017-11-17T23:51:47.471Z,7.50
2017-11-17T23:54:15.259Z,7.30
2017-11-17T23:56:43.103Z,7.30
2017-11-17T23:59:10.970Z,7.40
